createdAt,value
2023-01-07T00:02:08.148Z,3.13
2023-01-07T00:07:12.398Z,2.27
2023-01-07T00:12:15.317Z,2.63
2023-01-07T00:17:18.149Z,2.27
2023-01-07T00:22:22.355Z,2.17
2023-01-07T00:27:25.481Z,2.50
2023-01-07T00:32:48.903Z,2.10
2023-01-07T00:37:54.528Z,2.27
2023-01-07T00:43:01.531Z,2.23
2023-01-07T00:48:05.830Z,2.17
2023-01-07T00:53:11.387Z,2.60
2023-01-07T00:58:16.154Z,2.60
2023-01-07T01:03:20.184Z,3.63
2023-01-07T01:08:24.509Z,2.13
2023-01-07T01:13:27.417Z,4.80
2023-01-07T01:18:30.345Z,1.70
2023-01-07T01:23:34.866Z,1.87
2023-01-07T01:28:37.921Z,1.97
2023-01-07T01:33:40.995Z,1.90
2023-01-07T01:38:45.449Z,1.60
2023-01-07T01:43:48.607Z,1.80
2023-01-07T01:48:55.852Z,1.40
2023-01-07T01:54:00.725Z,1.67
2023-01-07T01:59:08.284Z,1.90
2023-01-07T02:04:15.036Z,1.70
2023-01-07T02:09:20.212Z,1.80
2023-01-07T02:14:40.459Z,1.90
2023-01-07T02:20:07.024Z,1.90
2023-01-07T02:25:43.291Z,1.63
2023-01-07T02:31:09.505Z,1.80
2023-01-07T02:36:25.727Z,1.50
2023-01-07T02:41:40.695Z,1.40
2023-01-07T02:46:52.180Z,1.50
2023-01-07T02:52:17.344Z,1.40
2023-01-07T02:57:44.700Z,1.37
2023-01-07T03:03:15.035Z,1.40
2023-01-07T03:08:35.983Z,1.70
2023-01-07T03:13:44.367Z,1.67
2023-01-07T03:18:51.323Z,1.60
2023-01-07T03:23:58.141Z,1.57
2023-01-07T03:29:04.053Z,1.60
2023-01-07T03:34:13.502Z,1.50
2023-01-07T03:39:19.692Z,1.40
2023-01-07T03:44:22.636Z,1.30
2023-01-07T03:49:25.652Z,1.40
2023-01-07T03:54:30.527Z,1.10
2023-01-07T03:59:33.515Z,1.50
2023-01-07T04:04:36.871Z,1.03
2023-01-07T04:09:41.428Z,1.13
2023-01-07T04:14:45.407Z,1.13
2023-01-07T04:19:48.708Z,1.20
2023-01-07T04:24:53.110Z,1.30
2023-01-07T04:29:56.358Z,1.30
2023-01-07T04:35:00.030Z,1.10
2023-01-07T04:40:06.945Z,1.20
2023-01-07T04:45:12.617Z,1.30
2023-01-07T04:50:16.472Z,1.27
2023-01-07T04:55:21.653Z,1.17
2023-01-07T05:00:24.997Z,1.10
2023-01-07T05:05:30.351Z,1.10
2023-01-07T05:10:35.107Z,1.20
2023-01-07T05:15:38.635Z,1.17
2023-01-07T05:20:41.722Z,1.20
2023-01-07T05:25:46.236Z,1.40
2023-01-07T05:30:49.412Z,1.50
2023-01-07T05:35:52.449Z,1.13
2023-01-07T05:40:58.942Z,1.20
2023-01-07T05:46:03.635Z,1.50
2023-01-07T05:51:07.041Z,1.30
2023-01-07T05:56:11.557Z,1.03
2023-01-07T06:01:14.693Z,1.13
2023-01-07T06:06:17.796Z,1.20
2023-01-07T06:11:22.099Z,1.30
2023-01-07T06:16:25.077Z,1.10
2023-01-07T06:21:28.436Z,1.50
2023-01-07T06:26:32.704Z,1.20
2023-01-07T06:31:35.657Z,1.10
2023-01-07T06:36:38.716Z,1.00
2023-01-07T06:41:42.978Z,1.00
2023-01-07T06:46:45.944Z,1.17
2023-01-07T06:51:48.842Z,1.10
2023-01-07T06:56:53.167Z,1.23
2023-01-07T07:01:56.447Z,1.40
2023-01-07T07:06:59.478Z,1.10
2023-01-07T07:12:03.845Z,1.30
2023-01-07T07:17:06.940Z,3.27
2023-01-07T07:22:10.071Z,1.50
2023-01-07T07:27:14.452Z,1.30
2023-01-07T07:32:17.474Z,1.13
2023-01-07T07:37:20.382Z,1.47
2023-01-07T07:42:24.575Z,1.10
2023-01-07T07:47:27.519Z,2.10
2023-01-07T07:52:30.492Z,1.23
2023-01-07T07:57:34.730Z,1.30
2023-01-07T08:02:37.854Z,1.20
2023-01-07T08:07:40.875Z,1.27
2023-01-07T08:12:45.171Z,1.30
2023-01-07T08:17:48.114Z,1.60
2023-01-07T08:22:51.026Z,1.10
2023-01-07T08:27:55.813Z,1.00
2023-01-07T08:32:59.173Z,1.20
2023-01-07T08:38:03.529Z,1.20
2023-01-07T08:43:09.065Z,1.10
2023-01-07T08:48:12.243Z,1.20
2023-01-07T08:53:15.492Z,1.30
2023-01-07T08:58:19.914Z,1.40
2023-01-07T09:03:23.117Z,0.97
2023-01-07T09:08:26.039Z,1.20
2023-01-07T09:13:30.343Z,1.43
2023-01-07T09:18:33.305Z,1.43
2023-01-07T09:23:36.393Z,1.70
2023-01-07T09:28:40.717Z,2.17
2023-01-07T09:33:43.695Z,1.33
2023-01-07T09:38:46.711Z,1.00
2023-01-07T09:43:59.949Z,1.00
2023-01-07T09:49:05.482Z,1.20
2023-01-07T09:54:20.929Z,1.20
2023-01-07T09:59:25.471Z,2.27
2023-01-07T10:04:39.061Z,1.33
2023-01-07T10:09:54.165Z,1.10
2023-01-07T10:15:16.607Z,1.30
2023-01-07T10:20:30.776Z,1.03
2023-01-07T10:25:37.838Z,1.00
2023-01-07T10:30:45.757Z,1.10
2023-01-07T10:35:52.171Z,1.10
2023-01-07T10:40:58.562Z,0.90
2023-01-07T10:46:22.441Z,1.10
2023-01-07T10:51:51.607Z,1.20
2023-01-07T10:57:01.197Z,1.20
2023-01-07T11:02:06.257Z,1.07
2023-01-07T11:07:15.665Z,1.10
2023-01-07T11:12:28.929Z,1.03
2023-01-07T11:17:38.367Z,1.17
2023-01-07T11:22:41.330Z,0.90
2023-01-07T11:27:46.848Z,1.20
2023-01-07T11:32:59.128Z,1.20
2023-01-07T11:38:02.194Z,1.30
2023-01-07T11:43:23.033Z,0.90
2023-01-07T11:48:30.362Z,1.00
2023-01-07T11:53:36.993Z,1.10
2023-01-07T11:58:41.790Z,1.03
2023-01-07T12:04:02.990Z,0.90
2023-01-07T12:09:19.605Z,1.00
2023-01-07T12:14:28.095Z,1.00
2023-01-07T12:19:58.844Z,1.00
2023-01-07T12:25:23.442Z,1.10
2023-01-07T12:30:43.934Z,0.90
2023-01-07T12:35:49.221Z,1.00
2023-01-07T12:40:55.886Z,1.20
2023-01-07T12:46:01.169Z,1.20
2023-01-07T12:51:13.100Z,1.33
2023-01-07T12:56:23.118Z,1.20
2023-01-07T13:01:30.766Z,3.60
2023-01-07T13:06:46.754Z,2.63
2023-01-07T13:12:42.190Z,1.60
2023-01-07T13:17:33.999Z,2.30
2023-01-07T13:22:44.479Z,2.10
2023-01-07T13:28:21.670Z,2.20
2023-01-07T13:33:29.954Z,2.10
2023-01-07T13:39:02.852Z,1.93
2023-01-07T13:44:26.485Z,2.17
2023-01-07T13:49:32.207Z,2.57
2023-01-07T13:54:56.241Z,1.90
2023-01-07T14:00:01.435Z,2.30
2023-01-07T14:05:25.489Z,2.50
2023-01-07T14:10:32.461Z,2.70
2023-01-07T14:15:55.932Z,4.50
2023-01-07T14:21:10.314Z,3.77
2023-01-07T14:26:27.218Z,3.23
2023-01-07T14:31:31.670Z,3.30
2023-01-07T14:37:11.626Z,3.73
2023-01-07T14:42:42.274Z,4.37
2023-01-07T14:47:55.131Z,3.90
2023-01-07T14:53:38.210Z,3.20
2023-01-07T14:58:59.630Z,3.57
2023-01-07T15:04:32.838Z,3.47
2023-01-07T15:10:00.250Z,4.70
2023-01-07T15:15:30.372Z,3.17
2023-01-07T15:20:44.963Z,2.37
2023-01-07T15:25:55.442Z,2.70
2023-01-07T15:31:08.685Z,3.47
2023-01-07T15:36:15.666Z,4.20
2023-01-07T15:41:26.107Z,2.90
2023-01-07T15:46:32.534Z,16.47
2023-01-07T15:51:40.103Z,96.87
2023-01-07T15:56:43.283Z,15.60
2023-01-07T16:01:50.786Z,4.73
2023-01-07T16:06:57.426Z,11.37
2023-01-07T16:12:00.342Z,36.73
2023-01-07T16:17:14.253Z,11.80
2023-01-07T16:22:19.682Z,6.33
2023-01-07T16:27:29.079Z,7.10
2023-01-07T16:32:34.327Z,7.43
2023-01-07T16:37:40.334Z,6.03
2023-01-07T16:42:48.158Z,7.37
2023-01-07T16:48:19.236Z,8.10
2023-01-07T16:53:25.958Z,10.17
2023-01-07T16:58:31.569Z,17.07
2023-01-07T17:03:45.488Z,13.17
2023-01-07T17:08:50.585Z,12.60
2023-01-07T17:13:53.831Z,29.07
2023-01-07T17:18:59.803Z,11.83
2023-01-07T17:24:02.772Z,9.80
2023-01-07T17:29:13.156Z,9.83
2023-01-07T17:34:18.172Z,6.20
2023-01-07T17:39:21.109Z,8.80
2023-01-07T17:44:24.162Z,10.47
2023-01-07T17:49:28.428Z,7.97
2023-01-07T17:54:32.228Z,17.77
2023-01-07T17:59:35.139Z,15.50
2023-01-07T18:04:39.419Z,7.60
2023-01-07T18:09:42.560Z,10.77
2023-01-07T18:14:45.471Z,21.93
2023-01-07T18:19:50.698Z,17.50
2023-01-07T18:24:53.651Z,18.83
2023-01-07T18:29:56.685Z,17.13
2023-01-07T18:35:00.972Z,12.17
2023-01-07T18:40:04.603Z,35.87
2023-01-07T18:45:08.734Z,12.40
2023-01-07T18:50:13.717Z,14.63
2023-01-07T18:55:17.898Z,15.77
2023-01-07T19:00:21.131Z,28.23
2023-01-07T19:05:25.410Z,13.33
2023-01-07T19:10:29.112Z,11.63
2023-01-07T19:15:31.977Z,25.20
2023-01-07T19:20:36.645Z,17.87
2023-01-07T19:25:39.585Z,20.60
2023-01-07T19:30:42.581Z,18.87
2023-01-07T19:35:46.852Z,35.50
2023-01-07T19:40:49.722Z,27.13
2023-01-07T19:45:55.236Z,21.33
2023-01-07T19:51:01.127Z,25.13
2023-01-07T19:56:05.725Z,12.70
2023-01-07T20:01:11.382Z,36.27
2023-01-07T20:06:17.711Z,24.30
2023-01-07T20:11:20.669Z,36.57
2023-01-07T20:16:24.819Z,24.70
2023-01-07T20:21:29.180Z,15.90
2023-01-07T20:26:34.233Z,15.87
2023-01-07T20:31:37.316Z,18.13
2023-01-07T20:36:41.744Z,20.10
2023-01-07T20:41:44.657Z,20.80
2023-01-07T20:46:47.561Z,20.57
2023-01-07T20:51:51.797Z,23.43
2023-01-07T20:56:54.725Z,24.53
2023-01-07T21:01:57.797Z,23.20
2023-01-07T21:07:02.203Z,34.07
2023-01-07T21:12:05.639Z,29.13
2023-01-07T21:17:08.659Z,38.93
2023-01-07T21:22:12.956Z,31.20
2023-01-07T21:27:15.897Z,32.73
2023-01-07T21:32:18.826Z,41.50
2023-01-07T21:37:23.074Z,39.47
2023-01-07T21:42:26.026Z,27.77
2023-01-07T21:47:29.849Z,33.80
2023-01-07T21:52:35.165Z,35.07
2023-01-07T21:57:38.168Z,17.60
2023-01-07T22:02:41.091Z,22.17
2023-01-07T22:07:45.353Z,23.63
2023-01-07T22:12:48.516Z,24.60
2023-01-07T22:17:51.442Z,38.27
2023-01-07T22:22:55.707Z,35.20
2023-01-07T22:27:59.947Z,22.00
2023-01-07T22:33:02.864Z,34.53
2023-01-07T22:38:07.773Z,22.77
2023-01-07T22:43:15.511Z,20.87
2023-01-07T22:48:23.896Z,31.53
2023-01-07T22:53:30.033Z,23.70
2023-01-07T22:58:32.962Z,28.90
2023-01-07T23:03:36.049Z,29.13
2023-01-07T23:08:40.656Z,25.60
2023-01-07T23:13:43.577Z,24.20
2023-01-07T23:18:46.455Z,23.30
2023-01-07T23:23:50.705Z,21.33
2023-01-07T23:28:53.610Z,14.00
2023-01-07T23:33:56.617Z,11.10
2023-01-07T23:39:00.902Z,12.87
2023-01-07T23:44:03.799Z,14.33
2023-01-07T23:49:06.647Z,15.73
2023-01-07T23:54:11.110Z,16.63
2023-01-07T23:59:14.063Z,17.60
